sensor_id;sensor_type;location;lat;lon;timestamp;P1;durP1;ratioP1;P2;durP2;ratioP2
16242;SDS011;11719;51.052;6.982;2023-04-23T00:00:50;3.83;;;2.77;;
16242;SDS011;11719;51.052;6.982;2023-04-23T00:03:18;5.17;;;2.20;;
16242;SDS011;11719;51.052;6.982;2023-04-23T00:05:46;5.77;;;3.27;;
16242;SDS011;11719;51.052;6.982;2023-04-23T00:08:14;5.33;;;2.73;;
16242;SDS011;11719;51.052;6.982;2023-04-23T00:10:43;6.30;;;3.40;;
16242;SDS011;11719;51.052;6.982;2023-04-23T00:13:09;4.80;;;3.10;;
16242;SDS011;11719;51.052;6.982;2023-04-23T00:15:36;5.07;;;2.70;;
16242;SDS011;11719;51.052;6.982;2023-04-23T00:18:02;1.90;;;1.27;;
16242;SDS011;11719;51.052;6.982;2023-04-23T00:20:28;2.87;;;2.13;;
16242;SDS011;11719;51.052;6.982;2023-04-23T00:22:53;2.03;;;0.93;;
16242;SDS011;11719;51.052;6.982;2023-04-23T00:25:19;2.53;;;1.17;;
16242;SDS011;11719;51.052;6.982;2023-04-23T00:27:45;1.00;;;0.90;;
16242;SDS011;11719;51.052;6.982;2023-04-23T00:30:11;2.83;;;1.83;;
16242;SDS011;11719;51.052;6.982;2023-04-23T00:32:37;3.40;;;2.23;;
16242;SDS011;11719;51.052;6.982;2023-04-23T00:35:03;4.90;;;1.80;;
16242;SDS011;11719;51.052;6.982;2023-04-23T00:37:30;3.70;;;2.27;;
16242;SDS011;11719;51.052;6.982;2023-04-23T00:39:56;3.87;;;2.03;;
16242;SDS011;11719;51.052;6.982;2023-04-23T00:42:22;3.57;;;2.63;;
16242;SDS011;11719;51.052;6.982;2023-04-23T00:44:48;2.57;;;1.43;;
16242;SDS011;11719;51.052;6.982;2023-04-23T00:47:15;2.63;;;1.60;;
16242;SDS011;11719;51.052;6.982;2023-04-23T00:49:42;4.90;;;2.93;;
16242;SDS011;11719;51.052;6.982;2023-04-23T00:52:09;5.03;;;3.07;;
16242;SDS011;11719;51.052;6.982;2023-04-23T00:54:35;7.33;;;3.00;;
16242;SDS011;11719;51.052;6.982;2023-04-23T00:57:00;1.57;;;1.20;;
16242;SDS011;11719;51.052;6.982;2023-04-23T00:59:27;1.73;;;1.20;;
16242;SDS011;11719;51.052;6.982;2023-04-23T01:01:53;7.17;;;1.73;;
16242;SDS011;11719;51.052;6.982;2023-04-23T01:04:20;1.20;;;0.83;;
16242;SDS011;11719;51.052;6.982;2023-04-23T01:06:48;2.87;;;1.60;;
16242;SDS011;11719;51.052;6.982;2023-04-23T01:09:15;1.27;;;0.97;;
16242;SDS011;11719;51.052;6.982;2023-04-23T01:11:44;0.80;;;0.70;;
16242;SDS011;11719;51.052;6.982;2023-04-23T01:14:11;1.40;;;0.83;;
16242;SDS011;11719;51.052;6.982;2023-04-23T01:16:37;1.27;;;0.77;;
16242;SDS011;11719;51.052;6.982;2023-04-23T01:19:04;0.90;;;0.73;;
16242;SDS011;11719;51.052;6.982;2023-04-23T01:21:32;2.93;;;1.97;;
16242;SDS011;11719;51.052;6.982;2023-04-23T01:24:00;2.07;;;1.07;;
16242;SDS011;11719;51.052;6.982;2023-04-23T01:26:29;1.20;;;0.93;;
16242;SDS011;11719;51.052;6.982;2023-04-23T01:28:56;1.87;;;0.97;;
16242;SDS011;11719;51.052;6.982;2023-04-23T01:31:23;0.93;;;0.83;;
16242;SDS011;11719;51.052;6.982;2023-04-23T01:33:50;1.03;;;0.93;;
16242;SDS011;11719;51.052;6.982;2023-04-23T01:36:19;1.60;;;0.80;;
16242;SDS011;11719;51.052;6.982;2023-04-23T01:38:47;1.07;;;0.83;;
16242;SDS011;11719;51.052;6.982;2023-04-23T01:41:13;2.33;;;1.00;;
16242;SDS011;11719;51.052;6.982;2023-04-23T01:43:40;1.87;;;1.30;;
16242;SDS011;11719;51.052;6.982;2023-04-23T01:46:07;5.93;;;3.37;;
16242;SDS011;11719;51.052;6.982;2023-04-23T01:48:33;1.00;;;0.90;;
16242;SDS011;11719;51.052;6.982;2023-04-23T01:50:59;1.83;;;1.00;;
16242;SDS011;11719;51.052;6.982;2023-04-23T01:53:25;1.10;;;1.00;;
16242;SDS011;11719;51.052;6.982;2023-04-23T01:55:51;0.83;;;0.60;;
16242;SDS011;11719;51.052;6.982;2023-04-23T01:58:19;1.70;;;1.33;;
16242;SDS011;11719;51.052;6.982;2023-04-23T02:00:47;1.07;;;0.80;;
16242;SDS011;11719;51.052;6.982;2023-04-23T02:03:13;1.00;;;0.90;;
16242;SDS011;11719;51.052;6.982;2023-04-23T02:05:39;1.67;;;0.97;;
16242;SDS011;11719;51.052;6.982;2023-04-23T02:08:06;1.03;;;0.93;;
16242;SDS011;11719;51.052;6.982;2023-04-23T02:10:33;2.17;;;1.03;;
16242;SDS011;11719;51.052;6.982;2023-04-23T02:13:00;2.30;;;1.73;;
16242;SDS011;11719;51.052;6.982;2023-04-23T02:15:26;3.17;;;2.20;;
16242;SDS011;11719;51.052;6.982;2023-04-23T02:17:52;1.40;;;1.20;;
16242;SDS011;11719;51.052;6.982;2023-04-23T02:20:19;2.83;;;1.33;;
16242;SDS011;11719;51.052;6.982;2023-04-23T02:22:49;1.63;;;1.00;;
16242;SDS011;11719;51.052;6.982;2023-04-23T02:25:15;2.83;;;1.80;;
16242;SDS011;11719;51.052;6.982;2023-04-23T02:27:42;1.97;;;1.20;;
16242;SDS011;11719;51.052;6.982;2023-04-23T02:30:09;0.97;;;0.70;;
16242;SDS011;11719;51.052;6.982;2023-04-23T02:32:36;3.73;;;1.77;;
16242;SDS011;11719;51.052;6.982;2023-04-23T02:35:02;2.03;;;1.37;;
16242;SDS011;11719;51.052;6.982;2023-04-23T02:37:31;2.77;;;1.77;;
16242;SDS011;11719;51.052;6.982;2023-04-23T02:39:57;1.30;;;1.13;;
16242;SDS011;11719;51.052;6.982;2023-04-23T02:42:23;1.43;;;1.00;;
16242;SDS011;11719;51.052;6.982;2023-04-23T02:44:49;1.07;;;0.90;;
16242;SDS011;11719;51.052;6.982;2023-04-23T02:47:14;1.60;;;1.00;;
16242;SDS011;11719;51.052;6.982;2023-04-23T02:49:40;1.90;;;0.87;;
16242;SDS011;11719;51.052;6.982;2023-04-23T02:52:06;1.97;;;0.90;;
16242;SDS011;11719;51.052;6.982;2023-04-23T02:54:32;1.07;;;0.80;;
16242;SDS011;11719;51.052;6.982;2023-04-23T02:56:57;1.70;;;0.80;;
16242;SDS011;11719;51.052;6.982;2023-04-23T02:59:23;1.37;;;1.00;;
16242;SDS011;11719;51.052;6.982;2023-04-23T03:01:49;0.77;;;0.70;;
16242;SDS011;11719;51.052;6.982;2023-04-23T03:04:15;1.33;;;0.80;;
16242;SDS011;11719;51.052;6.982;2023-04-23T03:06:42;1.30;;;0.90;;
16242;SDS011;11719;51.052;6.982;2023-04-23T03:09:08;1.90;;;1.10;;
16242;SDS011;11719;51.052;6.982;2023-04-23T03:11:33;1.23;;;0.83;;
16242;SDS011;11719;51.052;6.982;2023-04-23T03:13:59;1.23;;;0.83;;
16242;SDS011;11719;51.052;6.982;2023-04-23T03:16:28;1.93;;;1.23;;
16242;SDS011;11719;51.052;6.982;2023-04-23T03:18:55;1.13;;;0.90;;
16242;SDS011;11719;51.052;6.982;2023-04-23T03:21:22;1.10;;;0.93;;
16242;SDS011;11719;51.052;6.982;2023-04-23T03:23:48;1.33;;;0.90;;
16242;SDS011;11719;51.052;6.982;2023-04-23T03:26:13;1.73;;;1.37;;
16242;SDS011;11719;51.052;6.982;2023-04-23T03:28:40;2.30;;;0.80;;
16242;SDS011;11719;51.052;6.982;2023-04-23T03:31:06;1.23;;;0.97;;
16242;SDS011;11719;51.052;6.982;2023-04-23T03:33:32;2.77;;;1.20;;
16242;SDS011;11719;51.052;6.982;2023-04-23T03:35:57;2.63;;;1.30;;
16242;SDS011;11719;51.052;6.982;2023-04-23T03:38:23;0.97;;;0.67;;
16242;SDS011;11719;51.052;6.982;2023-04-23T03:40:49;0.97;;;0.83;;
16242;SDS011;11719;51.052;6.982;2023-04-23T03:43:15;9.43;;;2.80;;
16242;SDS011;11719;51.052;6.982;2023-04-23T03:45:41;2.13;;;1.00;;
16242;SDS011;11719;51.052;6.982;2023-04-23T03:48:07;5.57;;;3.10;;
16242;SDS011;11719;51.052;6.982;2023-04-23T03:50:32;2.13;;;1.10;;
16242;SDS011;11719;51.052;6.982;2023-04-23T03:53:02;1.07;;;0.90;;
16242;SDS011;11719;51.052;6.982;2023-04-23T03:55:29;3.03;;;1.40;;
16242;SDS011;11719;51.052;6.982;2023-04-23T03:57:54;0.97;;;0.83;;
16242;SDS011;11719;51.052;6.982;2023-04-23T04:00:20;2.30;;;1.20;;
16242;SDS011;11719;51.052;6.982;2023-04-23T04:02:46;1.00;;;0.90;;
16242;SDS011;11719;51.052;6.982;2023-04-23T04:05:12;1.47;;;1.00;;
16242;SDS011;11719;51.052;6.982;2023-04-23T04:07:38;8.10;;;4.40;;
16242;SDS011;11719;51.052;6.982;2023-04-23T04:10:05;3.07;;;1.63;;
16242;SDS011;11719;51.052;6.982;2023-04-23T04:12:31;1.73;;;1.00;;
16242;SDS011;11719;51.052;6.982;2023-04-23T04:14:57;4.20;;;2.57;;
16242;SDS011;11719;51.052;6.982;2023-04-23T04:17:23;2.23;;;1.50;;
16242;SDS011;11719;51.052;6.982;2023-04-23T04:19:49;2.00;;;1.17;;
16242;SDS011;11719;51.052;6.982;2023-04-23T04:22:15;2.17;;;1.17;;
16242;SDS011;11719;51.052;6.982;2023-04-23T04:24:41;2.17;;;1.47;;
16242;SDS011;11719;51.052;6.982;2023-04-23T04:27:07;4.83;;;2.33;;
16242;SDS011;11719;51.052;6.982;2023-04-23T04:29:33;3.00;;;1.40;;
16242;SDS011;11719;51.052;6.982;2023-04-23T04:31:59;6.03;;;2.67;;
16242;SDS011;11719;51.052;6.982;2023-04-23T04:34:26;5.53;;;3.03;;
16242;SDS011;11719;51.052;6.982;2023-04-23T04:36:52;5.83;;;2.73;;
16242;SDS011;11719;51.052;6.982;2023-04-23T04:39:18;2.33;;;1.10;;
16242;SDS011;11719;51.052;6.982;2023-04-23T04:41:44;5.47;;;2.87;;
16242;SDS011;11719;51.052;6.982;2023-04-23T04:44:11;1.53;;;1.23;;
16242;SDS011;11719;51.052;6.982;2023-04-23T04:46:38;2.13;;;1.40;;
16242;SDS011;11719;51.052;6.982;2023-04-23T04:49:13;2.10;;;1.37;;
16242;SDS011;11719;51.052;6.982;2023-04-23T04:51:39;4.00;;;2.77;;
16242;SDS011;11719;51.052;6.982;2023-04-23T04:54:05;1.43;;;1.07;;
16242;SDS011;11719;51.052;6.982;2023-04-23T04:56:32;4.97;;;2.57;;
16242;SDS011;11719;51.052;6.982;2023-04-23T04:58:59;2.37;;;1.10;;
16242;SDS011;11719;51.052;6.982;2023-04-23T05:01:26;1.73;;;1.20;;
16242;SDS011;11719;51.052;6.982;2023-04-23T05:03:53;1.20;;;0.93;;
16242;SDS011;11719;51.052;6.982;2023-04-23T05:06:20;2.13;;;1.67;;
16242;SDS011;11719;51.052;6.982;2023-04-23T05:08:46;4.83;;;3.57;;
16242;SDS011;11719;51.052;6.982;2023-04-23T05:11:17;1.63;;;1.43;;
16242;SDS011;11719;51.052;6.982;2023-04-23T05:13:45;1.63;;;1.03;;
16242;SDS011;11719;51.052;6.982;2023-04-23T05:16:12;3.00;;;1.33;;
16242;SDS011;11719;51.052;6.982;2023-04-23T05:18:38;1.60;;;1.23;;
16242;SDS011;11719;51.052;6.982;2023-04-23T05:21:05;1.30;;;1.10;;
16242;SDS011;11719;51.052;6.982;2023-04-23T05:23:31;1.70;;;1.27;;
16242;SDS011;11719;51.052;6.982;2023-04-23T05:25:58;1.60;;;1.23;;
16242;SDS011;11719;51.052;6.982;2023-04-23T05:28:24;2.57;;;1.30;;
16242;SDS011;11719;51.052;6.982;2023-04-23T05:30:50;1.23;;;0.80;;
16242;SDS011;11719;51.052;6.982;2023-04-23T05:33:16;1.07;;;0.83;;
16242;SDS011;11719;51.052;6.982;2023-04-23T05:35:42;1.80;;;1.23;;
16242;SDS011;11719;51.052;6.982;2023-04-23T05:38:08;1.70;;;0.80;;
16242;SDS011;11719;51.052;6.982;2023-04-23T05:40:34;1.17;;;0.90;;
16242;SDS011;11719;51.052;6.982;2023-04-23T05:43:00;1.70;;;1.20;;
16242;SDS011;11719;51.052;6.982;2023-04-23T05:45:26;1.17;;;0.90;;
16242;SDS011;11719;51.052;6.982;2023-04-23T05:47:52;1.73;;;0.80;;
16242;SDS011;11719;51.052;6.982;2023-04-23T05:50:19;2.73;;;1.50;;
16242;SDS011;11719;51.052;6.982;2023-04-23T05:52:45;1.10;;;1.00;;
16242;SDS011;11719;51.052;6.982;2023-04-23T05:55:11;2.50;;;1.47;;
16242;SDS011;11719;51.052;6.982;2023-04-23T05:57:39;1.70;;;0.97;;
16242;SDS011;11719;51.052;6.982;2023-04-23T06:00:05;1.30;;;1.10;;
16242;SDS011;11719;51.052;6.982;2023-04-23T06:02:35;1.23;;;1.10;;
16242;SDS011;11719;51.052;6.982;2023-04-23T06:05:02;5.57;;;2.80;;
16242;SDS011;11719;51.052;6.982;2023-04-23T06:07:30;5.63;;;2.90;;
16242;SDS011;11719;51.052;6.982;2023-04-23T06:09:56;3.23;;;1.23;;
16242;SDS011;11719;51.052;6.982;2023-04-23T06:12:22;1.23;;;1.00;;
16242;SDS011;11719;51.052;6.982;2023-04-23T06:14:47;1.63;;;1.03;;
16242;SDS011;11719;51.052;6.982;2023-04-23T06:17:13;4.03;;;1.67;;
16242;SDS011;11719;51.052;6.982;2023-04-23T06:19:40;1.87;;;1.27;;
16242;SDS011;11719;51.052;6.982;2023-04-23T06:22:05;1.20;;;0.90;;
16242;SDS011;11719;51.052;6.982;2023-04-23T06:24:31;1.63;;;1.17;;
16242;SDS011;11719;51.052;6.982;2023-04-23T06:26:57;2.80;;;1.40;;
16242;SDS011;11719;51.052;6.982;2023-04-23T06:29:23;1.80;;;1.17;;
16242;SDS011;11719;51.052;6.982;2023-04-23T06:31:49;1.63;;;1.10;;
16242;SDS011;11719;51.052;6.982;2023-04-23T06:34:15;1.50;;;1.17;;
16242;SDS011;11719;51.052;6.982;2023-04-23T06:36:41;1.07;;;0.97;;
16242;SDS011;11719;51.052;6.982;2023-04-23T06:39:07;1.43;;;1.10;;
16242;SDS011;11719;51.052;6.982;2023-04-23T06:41:34;1.63;;;0.90;;
16242;SDS011;11719;51.052;6.982;2023-04-23T06:44:00;3.73;;;2.30;;
16242;SDS011;11719;51.052;6.982;2023-04-23T06:46:26;1.60;;;1.40;;
16242;SDS011;11719;51.052;6.982;2023-04-23T06:48:51;1.50;;;1.07;;
16242;SDS011;11719;51.052;6.982;2023-04-23T06:51:17;1.30;;;1.00;;
16242;SDS011;11719;51.052;6.982;2023-04-23T06:53:43;4.47;;;2.30;;
16242;SDS011;11719;51.052;6.982;2023-04-23T06:56:09;3.60;;;2.13;;
16242;SDS011;11719;51.052;6.982;2023-04-23T06:58:35;1.37;;;1.03;;
16242;SDS011;11719;51.052;6.982;2023-04-23T07:01:01;4.00;;;2.43;;
16242;SDS011;11719;51.052;6.982;2023-04-23T07:03:31;2.17;;;1.57;;
16242;SDS011;11719;51.052;6.982;2023-04-23T07:05:57;1.30;;;1.00;;
16242;SDS011;11719;51.052;6.982;2023-04-23T07:08:23;2.43;;;1.97;;
16242;SDS011;11719;51.052;6.982;2023-04-23T07:10:49;1.87;;;1.17;;
16242;SDS011;11719;51.052;6.982;2023-04-23T07:13:15;1.23;;;0.87;;
16242;SDS011;11719;51.052;6.982;2023-04-23T07:15:41;0.70;;;0.70;;
16242;SDS011;11719;51.052;6.982;2023-04-23T07:18:07;2.47;;;1.40;;
16242;SDS011;11719;51.052;6.982;2023-04-23T07:20:34;4.50;;;2.50;;
16242;SDS011;11719;51.052;6.982;2023-04-23T07:23:00;2.87;;;1.60;;
16242;SDS011;11719;51.052;6.982;2023-04-23T07:25:28;3.07;;;1.47;;
16242;SDS011;11719;51.052;6.982;2023-04-23T07:27:55;1.50;;;1.20;;
16242;SDS011;11719;51.052;6.982;2023-04-23T07:30:21;2.60;;;1.80;;
16242;SDS011;11719;51.052;6.982;2023-04-23T07:32:49;1.90;;;1.10;;
16242;SDS011;11719;51.052;6.982;2023-04-23T07:35:15;1.83;;;1.17;;
16242;SDS011;11719;51.052;6.982;2023-04-23T07:37:41;1.07;;;0.97;;
16242;SDS011;11719;51.052;6.982;2023-04-23T07:40:07;1.60;;;1.07;;
16242;SDS011;11719;51.052;6.982;2023-04-23T07:42:33;1.97;;;1.33;;
16242;SDS011;11719;51.052;6.982;2023-04-23T07:44:59;3.23;;;2.47;;
16242;SDS011;11719;51.052;6.982;2023-04-23T07:47:25;1.07;;;0.93;;
16242;SDS011;11719;51.052;6.982;2023-04-23T07:49:51;1.83;;;1.30;;
16242;SDS011;11719;51.052;6.982;2023-04-23T07:52:17;4.37;;;2.03;;
16242;SDS011;11719;51.052;6.982;2023-04-23T07:54:43;3.17;;;2.30;;
16242;SDS011;11719;51.052;6.982;2023-04-23T07:57:09;2.20;;;1.70;;
16242;SDS011;11719;51.052;6.982;2023-04-23T07:59:35;2.40;;;2.13;;
16242;SDS011;11719;51.052;6.982;2023-04-23T08:02:03;2.43;;;1.63;;
16242;SDS011;11719;51.052;6.982;2023-04-23T08:04:29;3.30;;;2.20;;
16242;SDS011;11719;51.052;6.982;2023-04-23T08:06:55;3.93;;;2.57;;
16242;SDS011;11719;51.052;6.982;2023-04-23T08:09:21;2.73;;;1.87;;
16242;SDS011;11719;51.052;6.982;2023-04-23T08:11:47;2.70;;;1.80;;
16242;SDS011;11719;51.052;6.982;2023-04-23T08:14:13;4.60;;;1.83;;
16242;SDS011;11719;51.052;6.982;2023-04-23T08:16:39;3.27;;;2.07;;
16242;SDS011;11719;51.052;6.982;2023-04-23T08:19:05;2.33;;;1.30;;
16242;SDS011;11719;51.052;6.982;2023-04-23T08:21:31;2.43;;;1.70;;
16242;SDS011;11719;51.052;6.982;2023-04-23T08:23:57;1.73;;;1.40;;
16242;SDS011;11719;51.052;6.982;2023-04-23T08:26:23;3.80;;;1.63;;
16242;SDS011;11719;51.052;6.982;2023-04-23T08:28:49;1.20;;;1.00;;
16242;SDS011;11719;51.052;6.982;2023-04-23T08:31:16;1.77;;;1.23;;
16242;SDS011;11719;51.052;6.982;2023-04-23T08:33:41;1.37;;;1.23;;
16242;SDS011;11719;51.052;6.982;2023-04-23T08:36:09;2.10;;;1.30;;
16242;SDS011;11719;51.052;6.982;2023-04-23T08:38:34;2.03;;;1.80;;
16242;SDS011;11719;51.052;6.982;2023-04-23T08:41:00;2.23;;;1.70;;
16242;SDS011;11719;51.052;6.982;2023-04-23T08:43:31;4.37;;;1.40;;
16242;SDS011;11719;51.052;6.982;2023-04-23T08:46:06;1.93;;;1.40;;
16242;SDS011;11719;51.052;6.982;2023-04-23T08:48:38;2.07;;;1.57;;
16242;SDS011;11719;51.052;6.982;2023-04-23T08:51:06;1.47;;;0.90;;
16242;SDS011;11719;51.052;6.982;2023-04-23T08:53:35;2.63;;;0.77;;
16242;SDS011;11719;51.052;6.982;2023-04-23T08:56:02;0.93;;;0.90;;
16242;SDS011;11719;51.052;6.982;2023-04-23T08:58:31;1.00;;;0.77;;
16242;SDS011;11719;51.052;6.982;2023-04-23T09:00:58;2.60;;;1.10;;
16242;SDS011;11719;51.052;6.982;2023-04-23T09:03:24;1.23;;;1.03;;
16242;SDS011;11719;51.052;6.982;2023-04-23T09:05:50;1.10;;;1.00;;
16242;SDS011;11719;51.052;6.982;2023-04-23T09:08:20;0.90;;;0.50;;
16242;SDS011;11719;51.052;6.982;2023-04-23T09:10:45;3.33;;;1.23;;
16242;SDS011;11719;51.052;6.982;2023-04-23T09:13:12;1.77;;;1.03;;
16242;SDS011;11719;51.052;6.982;2023-04-23T09:15:40;2.10;;;1.33;;
16242;SDS011;11719;51.052;6.982;2023-04-23T09:18:09;1.80;;;0.93;;
16242;SDS011;11719;51.052;6.982;2023-04-23T09:20:35;0.87;;;0.70;;
16242;SDS011;11719;51.052;6.982;2023-04-23T09:23:07;2.07;;;1.23;;
16242;SDS011;11719;51.052;6.982;2023-04-23T09:25:34;1.97;;;1.00;;
16242;SDS011;11719;51.052;6.982;2023-04-23T09:28:00;1.40;;;0.97;;
16242;SDS011;11719;51.052;6.982;2023-04-23T09:30:26;1.13;;;1.00;;
16242;SDS011;11719;51.052;6.982;2023-04-23T09:32:52;2.37;;;1.33;;
16242;SDS011;11719;51.052;6.982;2023-04-23T09:35:18;2.60;;;0.87;;
16242;SDS011;11719;51.052;6.982;2023-04-23T09:37:45;1.27;;;1.10;;
16242;SDS011;11719;51.052;6.982;2023-04-23T09:40:18;3.03;;;1.33;;
16242;SDS011;11719;51.052;6.982;2023-04-23T09:42:49;2.03;;;1.00;;
16242;SDS011;11719;51.052;6.982;2023-04-23T09:45:18;3.57;;;1.70;;
16242;SDS011;11719;51.052;6.982;2023-04-23T09:47:48;0.90;;;0.80;;
16242;SDS011;11719;51.052;6.982;2023-04-23T09:50:18;1.37;;;1.13;;
16242;SDS011;11719;51.052;6.982;2023-04-23T09:52:55;0.70;;;0.70;;
16242;SDS011;11719;51.052;6.982;2023-04-23T09:55:31;3.57;;;1.00;;
16242;SDS011;11719;51.052;6.982;2023-04-23T09:58:01;2.57;;;0.90;;
16242;SDS011;11719;51.052;6.982;2023-04-23T10:00:35;1.50;;;0.90;;
16242;SDS011;11719;51.052;6.982;2023-04-23T10:03:02;1.03;;;0.60;;
16242;SDS011;11719;51.052;6.982;2023-04-23T10:05:31;1.03;;;0.87;;
16242;SDS011;11719;51.052;6.982;2023-04-23T10:08:02;1.27;;;0.87;;
16242;SDS011;11719;51.052;6.982;2023-04-23T10:10:30;1.50;;;0.80;;
16242;SDS011;11719;51.052;6.982;2023-04-23T10:12:58;0.97;;;0.70;;
16242;SDS011;11719;51.052;6.982;2023-04-23T10:15:25;0.73;;;0.73;;
16242;SDS011;11719;51.052;6.982;2023-04-23T10:17:51;0.90;;;0.63;;
16242;SDS011;11719;51.052;6.982;2023-04-23T10:20:18;2.37;;;0.70;;
16242;SDS011;11719;51.052;6.982;2023-04-23T10:22:46;1.53;;;0.90;;
16242;SDS011;11719;51.052;6.982;2023-04-23T10:25:13;1.03;;;0.70;;
16242;SDS011;11719;51.052;6.982;2023-04-23T10:27:41;1.60;;;0.63;;
16242;SDS011;11719;51.052;6.982;2023-04-23T10:30:10;2.63;;;0.97;;
16242;SDS011;11719;51.052;6.982;2023-04-23T10:32:38;0.97;;;0.90;;
16242;SDS011;11719;51.052;6.982;2023-04-23T10:35:05;0.70;;;0.60;;
16242;SDS011;11719;51.052;6.982;2023-04-23T10:37:33;1.60;;;0.83;;
16242;SDS011;11719;51.052;6.982;2023-04-23T10:40:02;0.50;;;0.47;;
16242;SDS011;11719;51.052;6.982;2023-04-23T10:42:35;1.90;;;0.80;;
16242;SDS011;11719;51.052;6.982;2023-04-23T10:45:06;0.97;;;0.50;;
16242;SDS011;11719;51.052;6.982;2023-04-23T10:47:38;1.70;;;0.90;;
16242;SDS011;11719;51.052;6.982;2023-04-23T10:50:25;0.60;;;0.40;;
16242;SDS011;11719;51.052;6.982;2023-04-23T10:52:53;0.80;;;0.50;;
16242;SDS011;11719;51.052;6.982;2023-04-23T10:55:25;0.57;;;0.30;;
16242;SDS011;11719;51.052;6.982;2023-04-23T10:58:02;1.00;;;0.80;;
16242;SDS011;11719;51.052;6.982;2023-04-23T11:06:04;1.17;;;0.63;;
16242;SDS011;11719;51.052;6.982;2023-04-23T11:08:31;2.27;;;0.90;;
16242;SDS011;11719;51.052;6.982;2023-04-23T11:11:00;1.27;;;0.30;;
16242;SDS011;11719;51.052;6.982;2023-04-23T11:13:31;0.70;;;0.40;;
16242;SDS011;11719;51.052;6.982;2023-04-23T11:16:42;0.70;;;0.60;;
16242;SDS011;11719;51.052;6.982;2023-04-23T11:19:00;0.63;;;0.47;;
16242;SDS011;11719;51.052;6.982;2023-04-23T11:24:38;0.63;;;0.60;;
16242;SDS011;11719;51.052;6.982;2023-04-23T11:27:12;0.40;;;0.40;;
16242;SDS011;11719;51.052;6.982;2023-04-23T11:29:40;0.30;;;0.27;;
16242;SDS011;11719;51.052;6.982;2023-04-23T11:32:12;1.17;;;0.30;;
16242;SDS011;11719;51.052;6.982;2023-04-23T11:34:44;0.20;;;0.10;;
16242;SDS011;11719;51.052;6.982;2023-04-23T11:37:12;0.17;;;0.07;;
16242;SDS011;11719;51.052;6.982;2023-04-23T11:39:39;0.27;;;0.27;;
16242;SDS011;11719;51.052;6.982;2023-04-23T11:42:10;0.67;;;0.30;;
16242;SDS011;11719;51.052;6.982;2023-04-23T11:44:40;0.93;;;0.50;;
16242;SDS011;11719;51.052;6.982;2023-04-23T11:47:09;0.20;;;0.20;;
16242;SDS011;11719;51.052;6.982;2023-04-23T11:49:40;0.47;;;0.40;;
16242;SDS011;11719;51.052;6.982;2023-04-23T11:52:07;0.80;;;0.77;;
16242;SDS011;11719;51.052;6.982;2023-04-23T11:54:34;4.03;;;0.60;;
16242;SDS011;11719;51.052;6.982;2023-04-23T11:57:00;0.97;;;0.60;;
16242;SDS011;11719;51.052;6.982;2023-04-23T11:59:29;0.57;;;0.30;;
16242;SDS011;11719;51.052;6.982;2023-04-23T12:01:56;1.00;;;0.33;;
16242;SDS011;11719;51.052;6.982;2023-04-23T12:04:24;0.30;;;0.30;;
16242;SDS011;11719;51.052;6.982;2023-04-23T12:06:55;1.07;;;0.50;;
16242;SDS011;11719;51.052;6.982;2023-04-23T12:09:23;1.43;;;0.30;;
16242;SDS011;11719;51.052;6.982;2023-04-23T12:11:51;3.03;;;0.30;;
16242;SDS011;11719;51.052;6.982;2023-04-23T12:14:18;0.60;;;0.40;;
16242;SDS011;11719;51.052;6.982;2023-04-23T12:16:52;0.80;;;0.40;;
16242;SDS011;11719;51.052;6.982;2023-04-23T12:19:29;2.10;;;0.40;;
16242;SDS011;11719;51.052;6.982;2023-04-23T12:22:02;0.60;;;0.50;;
16242;SDS011;11719;51.052;6.982;2023-04-23T12:24:29;0.90;;;0.50;;
16242;SDS011;11719;51.052;6.982;2023-04-23T12:27:12;2.33;;;0.57;;
16242;SDS011;11719;51.052;6.982;2023-04-23T12:29:40;1.00;;;0.67;;
16242;SDS011;11719;51.052;6.982;2023-04-23T12:32:08;1.27;;;0.60;;
16242;SDS011;11719;51.052;6.982;2023-04-23T12:34:35;1.13;;;0.67;;
16242;SDS011;11719;51.052;6.982;2023-04-23T12:37:04;0.87;;;0.50;;
16242;SDS011;11719;51.052;6.982;2023-04-23T12:39:34;1.17;;;0.50;;
16242;SDS011;11719;51.052;6.982;2023-04-23T12:42:01;3.13;;;0.47;;
16242;SDS011;11719;51.052;6.982;2023-04-23T12:44:35;2.17;;;0.37;;
16242;SDS011;11719;51.052;6.982;2023-04-23T12:47:06;1.13;;;0.40;;
16242;SDS011;11719;51.052;6.982;2023-04-23T12:49:33;0.63;;;0.40;;
16242;SDS011;11719;51.052;6.982;2023-04-23T12:52:01;1.63;;;0.50;;
16242;SDS011;11719;51.052;6.982;2023-04-23T12:54:29;0.33;;;0.30;;
16242;SDS011;11719;51.052;6.982;2023-04-23T12:56:58;2.77;;;0.50;;
16242;SDS011;11719;51.052;6.982;2023-04-23T12:59:26;2.33;;;0.50;;
16242;SDS011;11719;51.052;6.982;2023-04-23T13:01:53;1.40;;;0.60;;
16242;SDS011;11719;51.052;6.982;2023-04-23T13:04:19;1.53;;;0.50;;
16242;SDS011;11719;51.052;6.982;2023-04-23T13:06:45;1.23;;;0.40;;
16242;SDS011;11719;51.052;6.982;2023-04-23T13:09:11;1.33;;;0.40;;
16242;SDS011;11719;51.052;6.982;2023-04-23T13:11:37;2.73;;;0.50;;
16242;SDS011;11719;51.052;6.982;2023-04-23T13:14:04;0.87;;;0.53;;
16242;SDS011;11719;51.052;6.982;2023-04-23T13:16:31;0.20;;;0.20;;
16242;SDS011;11719;51.052;6.982;2023-04-23T13:18:58;0.93;;;0.30;;
16242;SDS011;11719;51.052;6.982;2023-04-23T13:21:24;0.70;;;0.30;;
16242;SDS011;11719;51.052;6.982;2023-04-23T13:23:51;1.47;;;0.20;;
16242;SDS011;11719;51.052;6.982;2023-04-23T13:26:17;1.13;;;0.50;;
16242;SDS011;11719;51.052;6.982;2023-04-23T13:28:43;0.90;;;0.20;;
16242;SDS011;11719;51.052;6.982;2023-04-23T13:31:09;1.00;;;0.30;;
16242;SDS011;11719;51.052;6.982;2023-04-23T13:33:36;0.40;;;0.30;;
16242;SDS011;11719;51.052;6.982;2023-04-23T13:36:03;0.20;;;0.20;;
16242;SDS011;11719;51.052;6.982;2023-04-23T13:38:29;0.40;;;0.40;;
16242;SDS011;11719;51.052;6.982;2023-04-23T13:40:55;1.57;;;0.47;;
16242;SDS011;11719;51.052;6.982;2023-04-23T13:43:21;1.47;;;0.47;;
16242;SDS011;11719;51.052;6.982;2023-04-23T13:45:47;0.27;;;0.27;;
16242;SDS011;11719;51.052;6.982;2023-04-23T13:48:13;1.17;;;0.40;;
16242;SDS011;11719;51.052;6.982;2023-04-23T13:50:40;0.93;;;0.40;;
16242;SDS011;11719;51.052;6.982;2023-04-23T13:53:08;0.50;;;0.37;;
16242;SDS011;11719;51.052;6.982;2023-04-23T13:55:35;0.37;;;0.20;;
16242;SDS011;11719;51.052;6.982;2023-04-23T13:58:02;1.07;;;0.40;;
16242;SDS011;11719;51.052;6.982;2023-04-23T14:00:30;0.63;;;0.40;;
16242;SDS011;11719;51.052;6.982;2023-04-23T14:02:55;3.00;;;0.40;;
16242;SDS011;11719;51.052;6.982;2023-04-23T14:05:21;1.03;;;0.50;;
16242;SDS011;11719;51.052;6.982;2023-04-23T14:07:47;3.17;;;0.50;;
16242;SDS011;11719;51.052;6.982;2023-04-23T14:10:13;0.33;;;0.30;;
16242;SDS011;11719;51.052;6.982;2023-04-23T14:12:39;4.63;;;0.40;;
16242;SDS011;11719;51.052;6.982;2023-04-23T14:15:05;1.13;;;0.40;;
16242;SDS011;11719;51.052;6.982;2023-04-23T14:17:33;1.23;;;0.20;;
16242;SDS011;11719;51.052;6.982;2023-04-23T14:19:59;0.47;;;0.30;;
16242;SDS011;11719;51.052;6.982;2023-04-23T14:22:25;1.80;;;0.20;;
16242;SDS011;11719;51.052;6.982;2023-04-23T14:24:54;0.10;;;0.10;;
16242;SDS011;11719;51.052;6.982;2023-04-23T14:27:26;0.70;;;0.50;;
16242;SDS011;11719;51.052;6.982;2023-04-23T14:32:20;0.23;;;0.23;;
16242;SDS011;11719;51.052;6.982;2023-04-23T14:34:46;0.57;;;0.40;;
16242;SDS011;11719;51.052;6.982;2023-04-23T14:37:11;0.40;;;0.37;;
16242;SDS011;11719;51.052;6.982;2023-04-23T14:39:39;0.40;;;0.20;;
16242;SDS011;11719;51.052;6.982;2023-04-23T14:42:05;0.40;;;0.40;;
16242;SDS011;11719;51.052;6.982;2023-04-23T14:44:31;0.50;;;0.50;;
16242;SDS011;11719;51.052;6.982;2023-04-23T14:46:57;0.30;;;0.30;;
16242;SDS011;11719;51.052;6.982;2023-04-23T14:49:23;2.17;;;0.37;;
16242;SDS011;11719;51.052;6.982;2023-04-23T14:51:49;1.30;;;0.40;;
16242;SDS011;11719;51.052;6.982;2023-04-23T14:54:18;0.30;;;0.30;;
16242;SDS011;11719;51.052;6.982;2023-04-23T14:56:45;0.27;;;0.20;;
16242;SDS011;11719;51.052;6.982;2023-04-23T14:59:11;0.20;;;0.20;;